Montreal / Pierre Elliott Trudeau International Airport

CYUL · Quebec, Canada

7 octobre 2022

Temps Code Temps Temp. Vue Base cloud Vent METAR/SPECI
03:00
V
16 °C 15 mi 13.000 ft 160° 160° 7 kt METAR CYUL 070700Z 16007KT 15SM FEW080 SCT100 BKN130 16/12 A2984 RMK AC2AC2AC3 SLP106 DENSITY ALT 400FT
02:00
V
15 °C 15 mi 9.000 ft 160° 160° 8 kt METAR CYUL 070600Z 16008KT 15SM BKN090 OVC120 15/12 A2986 RMK AC5AC3 SLP112 DENSITY ALT 300FT
01:00
V
15 °C 15 mi 15.000 ft 160° 160° 7 kt METAR CYUL 070500Z 16007KT 15SM FEW120 BKN150 BKN240 15/12 A2986 RMK AC1AC4CI2 SLP112 DENSITY ALT 300FT
00:10
V
16 °C 15 mi 13.000 ft 170° 170° 9 kt METAR CYUL 070410Z 17009KT 15SM -SHRA FEW080 SCT100 BKN130 16/12 A2987 RMK AC1AC2AC4 CVCTV CLD EMBD SLP116 DENSITY ALT 300FT
00:00
V
16 °C 15 mi 15.000 ft 180° 180° 8 kt METAR CYUL 070400Z 18008KT 15SM FEW080 SCT100 BKN150 16/12 A2987 RMK AC1AC3AC3 SLP116 DENSITY ALT 300FT

6 octobre 2022

Temps Code Temps Temp. Vue Base cloud Vent METAR/SPECI
23:52
V
16 °C 15 mi 14.000 ft 190° 190° 7 kt METAR CYUL 070352Z 19007KT 15SM FEW075 SCT100 BKN140 16/12 A2986 RMK AC1AC2AC4 SLP115 DENSITY ALT 300FT
23:23
V
16 °C 15 mi 10.000 ft 190° 190° 7 kt METAR CYUL 070323Z 19007KT 15SM -SHRA FEW060 OVC100 16/12 A2987 RMK SC2AC6 CVCTV CLD EMBD SLP117 DENSITY ALT 400FT
23:00
V
16 °C 15 mi 10.000 ft 230° 230° 10 - 15 kt METAR CYUL 070300Z 23010G15KT 15SM -SHRA FEW050 SCT080 OVC100 16/12 A2988 RMK SC1AC2AC5 CVCTV CLD EMBD SLP120 DENSITY ALT 400FT
22:07
V
16 °C 15 mi 7.000 ft 210° 210° 13 - 19 kt METAR CYUL 070207Z 21013G19KT 15SM -SHRA SCT045 BKN070 OVC120 16/12 A2987 RMK SC3AC3AC2 CVCTV CLD EMBD SLP119 DENSITY ALT 400FT
22:03
V
17 °C 8 mi 4.000 ft 210° 210° 14 kt METAR CYUL 070203Z 21014KT 8SM SHRA FEW018 BKN040 BKN085 OVC100 17/12 A2988 RMK SF1SC5AC2AC1 SF TR CVCTV CLD EMBD SLP120 DENSITY ALT 400FT
21:22
V
19 °C 15 mi 10.000 ft 230° 230° 14 kt METAR CYUL 070122Z 23014KT 15SM -SHRA BKN100 OVC130 19/11 A2987 RMK AC6AC2 CVCTV CLD EMBD SLP117 DENSITY ALT 700FT
21:00
V
19 °C 15 mi 10.000 ft 230° 230° 12 kt METAR CYUL 070100Z 23012KT 15SM -SHRA BKN100 OVC140 19/12 A2987 RMK AC6AC2 CVCTV CLD EMBD SLP118 DENSITY ALT 700FT
20:52
V
19 °C 15 mi 10.000 ft 220° 220° 9 - 15 kt METAR CYUL 070052Z 22009G15KT 15SM BKN100 OVC120 19/11 A2987 RMK AC6AC2 SLP117 DENSITY ALT 700FT
20:34
V
19 °C 15 mi 10.000 ft 230° 230° 11 - 20 kt METAR CYUL 070034Z 23011G20KT 15SM -SHRA BKN100 OVC120 19/11 A2987 RMK AC6AC2 CVCTV CLD EMBD SLP117 DENSITY ALT 700FT
20:00
V
19 °C 15 mi 16.000 ft 240° 240° 8 kt METAR CYUL 070000Z 24008KT 15SM SCT110 BKN160 BKN240 19/11 A2987 RMK AC4AC2CI1 SLP119 DENSITY ALT 700FT
19:00
V
19 °C 15 mi 11.000 ft 230° 230° 6 kt METAR CYUL 062300Z 23006KT 220V280 15SM BKN110 OVC130 19/12 A2987 RMK AC6AC2 SLP117 DENSITY ALT 700FT
18:00
V
20 °C 30 mi 10.000 ft 220° 220° 8 kt METAR CYUL 062200Z 22008KT 30SM BKN100 OVC150 20/12 A2986 RMK AC6AS2 SLP116 DENSITY ALT 900FT
17:00
V
21 °C 30 mi 11.000 ft 220° 220° 12 kt METAR CYUL 062100Z 22012KT 30SM BKN110 OVC240 21/11 A2986 RMK AC7CI1 SLP114 DENSITY ALT 1000FT
16:00
V
22 °C 30 mi 18.000 ft 210° 210° 7 kt METAR CYUL 062000Z 21007KT 30SM SCT120 BKN180 OVC250 22/10 A2987 RMK AC3AC4CI1 SLP116 DENSITY ALT 1000FT
15:00
V
22 °C 30 mi 24.000 ft 220° 220° 12 kt METAR CYUL 061900Z 22012KT 30SM FEW160 BKN240 22/09 A2987 RMK AC1CI5 SLP118 DENSITY ALT 1100FT
14:00
V
21 °C 30 mi 25.000 ft 230° 230° 11 kt METAR CYUL 061800Z 23011KT 30SM FEW170 BKN250 21/10 A2988 RMK AC2CI5 SLP121 DENSITY ALT 900FT
13:00
V
19 °C 30 mi 25.000 ft 220° 220° 7 kt METAR CYUL 061700Z 22007KT 30SM FEW180 BKN250 19/11 A2990 RMK AC1CI5 SLP129 DENSITY ALT 700FT
12:00
V
18 °C 30 mi 25.000 ft 210° 210° 9 kt METAR CYUL 061600Z 21009KT 30SM FEW180 BKN250 18/11 A2991 RMK AC1CI6 AC TR CC ASOCTD SLP132 DENSITY ALT 500FT
11:00
V
16 °C 15 mi 25.000 ft 210° 210° 8 kt METAR CYUL 061500Z 21008KT 15SM FEW180 BKN250 16/12 A2992 RMK AC1CI6 AC TR SLP135 DENSITY ALT 400FT
10:00
V
15 °C 30 mi 25.000 ft 200° 200° 7 kt METAR CYUL 061400Z 20007KT 30SM FEW180 BKN250 15/11 A2992 RMK AC1CI6 AC TR SLP136 DENSITY ALT 200FT
09:00
V
13 °C 30 mi 25.000 ft 230° 230° 8 kt METAR CYUL 061300Z 23008KT 30SM FEW160 BKN250 13/10 A2992 RMK AC1CI4 SLP136
08:00
V
12 °C 30 mi - 240° 240° 8 kt METAR CYUL 061200Z 24008KT 30SM SCT250 12/09 A2992 RMK CI4 SLP135
07:00
V
10 °C 15 mi - 250° 250° 7 kt METAR CYUL 061100Z 25007KT 15SM SCT250 10/08 A2992 RMK CI4 SLP134
06:00
V
10 °C 15 mi 25.000 ft 230° 230° 6 kt METAR CYUL 061000Z 23006KT 15SM BKN250 10/08 A2992 RMK CI6 SLP133
05:00
V
11 °C 15 mi 25.000 ft 230° 230° 4 kt METAR CYUL 060900Z 23004KT 15SM BKN250 11/08 A2992 RMK CI5 SLP134
04:00
V
11 °C 15 mi - 230° 230° 6 kt METAR CYUL 060800Z 23006KT 15SM SCT250 11/08 A2992 RMK CI3 SLP134
03:00
V
11 °C 15 mi - 230° 230° 7 kt METAR CYUL 060700Z 23007KT 15SM FEW250 11/07 A2992 RMK CI1 CI TR SLP136
02:00
V
12 °C 15 mi - 220° 220° 5 kt METAR CYUL 060600Z 22005KT 15SM FEW250 12/06 A2993 RMK CI1 SLP137
01:00
V
13 °C 15 mi - 210° 210° 6 kt METAR CYUL 060500Z 21006KT 15SM FEW250 13/07 A2994 RMK CI1 CI TR SLP140
00:00
V
13 °C 15 mi - 190° 190° 5 kt METAR CYUL 060400Z 19005KT 15SM FEW250 13/06 A2994 RMK CI1 CI TR SLP141

5 octobre 2022

Temps Code Temps Temp. Vue Base cloud Vent METAR/SPECI
23:00
V
14 °C 15 mi - 160° 160° 4 kt METAR CYUL 060300Z 16004KT 15SM FEW250 14/09 A2994 RMK CI1 CI TR SLP143
22:00
V
15 °C 15 mi - 230° 230° 4 kt METAR CYUL 060200Z 23004KT 15SM FEW250 15/08 A2995 RMK CI1 SLP146
21:00
V
15 °C 15 mi - 220° 220° 4 kt METAR CYUL 060100Z 22004KT 15SM SKC 15/08 A2995 RMK SLP146 DENSITY ALT 200FT
20:00
V
16 °C 15 mi - Var Var 2 kt METAR CYUL 060000Z VRB02KT 15SM SKC 16/06 A2995 RMK SLP146 DENSITY ALT 200FT
19:00
V
17 °C 15 mi - Var Var 2 kt METAR CYUL 052300Z VRB02KT 15SM FEW180 FEW240 17/03 A2996 RMK AC1CI1 AC TR CI TR SLP147 DENSITY ALT 400FT
18:00
V
19 °C 30 mi - 230° 230° 4 kt METAR CYUL 052200Z 23004KT 30SM FEW180 FEW240 19/04 A2995 RMK AC1CI1 AC TR CI TR SLP145 DENSITY ALT 600FT
17:00
V
20 °C 30 mi - 230° 230° 5 kt METAR CYUL 052100Z 23005KT 30SM FEW250 20/05 A2995 RMK CI1 CI TR SLP145 DENSITY ALT 700FT
16:00
V
20 °C 30 mi - 190° 190° 5 kt METAR CYUL 052000Z 19005KT 180V240 30SM FEW250 20/06 A2996 RMK CI1 CI TR SLP148 DENSITY ALT 700FT
15:00
V
19 °C 30 mi - 230° 230° 4 kt METAR CYUL 051900Z 23004KT 30SM FEW240 19/06 A2998 RMK CI1 CI TR SLP154 DENSITY ALT 600FT
14:00
V
18 °C 30 mi - 200° 200° 4 kt METAR CYUL 051800Z 20004KT 150V260 30SM FEW240 18/07 A3000 RMK CI1 CI TR SLP160 DENSITY ALT 500FT
13:00
V
17 °C 15 mi - 200° 200° 4 kt METAR CYUL 051700Z 20004KT 170V230 15SM FEW240 17/09 A3002 RMK CI1 CI TR SLP167 DENSITY ALT 300FT
12:00
V
16 °C 15 mi - 280° 280° 4 kt METAR CYUL 051600Z 28004KT 130V300 15SM FEW190 16/05 A3003 RMK CI1 CI TR SLP172 DENSITY ALT 200FT
11:00
V
14 °C 15 mi - Var 000° 0 kt METAR CYUL 051500Z 00000KT 15SM FEW250 14/06 A3005 RMK CI1 CI TR SLP177
10:00
V
12 °C 15 mi - Var Var 2 kt METAR CYUL 051400Z VRB02KT 15SM FEW250 12/06 A3006 RMK CI1 CI TR SLP181
09:00
V
10 °C 30 mi - Var Var 2 kt METAR CYUL 051300Z VRB02KT 30SM FEW250 10/07 A3006 RMK CI1 SLP181
08:00
V
6 °C 20 mi - Var Var 2 kt METAR CYUL 051200Z VRB02KT 20SM FEW250 06/05 A3006 RMK CI2 SLP182
07:00
V
4 °C 15 mi - 310° 310° 2 kt METAR CYUL 051100Z 31002KT 15SM SCT250 04/02 A3007 RMK CI3 SLP184
06:00
V
4 °C 15 mi - Var 000° 0 kt METAR CYUL 051000Z 00000KT 15SM FEW250 04/03 A3006 RMK CI2 SLP181
05:00
V
4 °C 15 mi - Var 000° 0 kt METAR CYUL 050900Z 00000KT 15SM SCT250 04/03 A3005 RMK CI3 SLP178
04:00
V
4 °C 15 mi - Var 000° 0 kt METAR CYUL 050800Z 00000KT 15SM SCT250 04/03 A3005 RMK CI4 SLP180
03:00
V
5 °C 15 mi - Var 000° 0 kt METAR CYUL 050700Z 00000KT 15SM SCT250 05/03 A3006 RMK CI3 SLP181
Données plus anciennes

Nous et des tiers suivons ton comportement sur Internet sur notre site Web à l'aide de cookies. Si tu continues, nous supposons que tu acceptes notre politique en matière de cookies. Apprendre plus